Steeton, United Kingdom
Current Conditions -  °F | °C
As of 7:50 AM on Tuesday 21 Oct 2014 (Local Time) from EGNM Reporting Station
Rain Showers Rain Showers  
Wind Chill: 40°   Ceiling: Unl
Heat Index: 48°   Visibility: 6mi
Dew Point: 45°   Wind: 24mph
Humidity: 87%   Direction: 280°W
Pressure: 29.32"   Gusts: 39mph
Location:  53.88°N, 1.95°W
Report Text: EGNM 210650Z 28021G34KT 250V310 9999 -SHRA FEW009 SCT020 09/07 Q0993
Loading
Personal Weather Stations






























Interactive Weather Map New forecast layout! Learn more

10-Day Weather Forecast

Advertisements
Track Severe Weather on mobile